Airfield :
LOGIN :

Register | Disclaimer

   EN    FR    IT 

 










Legend :    VFR   Marginal VFR   IFR   Intensive IFR   Very Intensive IFR
Visi :
Ceiling :
>= 8 km
>= 3000ft
5 to 8 km
1000 to 3000 ft
1500m to 5 km
500 to 1000 ft
800 to 1500m
200 to 500 ft
< 800m
< 200 ft
Symbols :   Thunderstorms  Fog  Heavy snow  Heavy precipitations  Wind > 20 kt
SIGMETs :     Misc.  Thunderstorms  Icing  Turbulence  Mountain Waves  Volcanic Ashes






- Airport Elevation : 235 ft
- IATA code : BZG


EPBY - Bydgoszcz

CURRENT METAR :
  • 201430Z 06005KT 030V090 9999 -TSRA SCT035CB 20/14 Q1013

EXPIRED METARs :
  • 201400Z 08005KT 9999 TS SCT035CB 20/14 Q1013
  • 201330Z 08005KT 9999 -TSRA SCT035CB 20/14 Q1013
  • 201300Z 07008KT 9999 TS SCT035CB 19/14 Q1013
  • 201230Z 08009KT 9999 -SHRA SCT031CB BKN046 20/13 Q1013
  • 201200Z 08006KT 050V120 9999 FEW035CB SCT043 21/13 Q1013
  • 201130Z 08009KT 9999 FEW029 SCT035CB 20/13 Q1013
  • 201100Z 07008KT 040V110 9999 SCT033CB 20/12 Q1013
  • 201030Z 07008KT 030V090 9999 FEW027 SCT032TCU 20/13 Q1013

TAF TAF EPBY
Valid from the 20 at 12:00 until the 21 at 12:00 UTC


201130Z 2012/2112 07010KT CAVOK
TEMPO 2012/2018 10015G25KT 6000 -SHRA BKN040CB
PROB40
TEMPO 2012/2018 VRB20G35KT 3000 TSRA TSGR BKN030CB
PROB30 2022/2104 1500 BR
TEMPO 2108/2112 SCT040TCU



MET'MAP, your aeronautical weather chart ! - Copyright ORBIFLY December 2007 - Disclaimer

ORBIFLY MET'MAP TEAM :

Programming & Development : Alexandra Zaïnal
Original concept : Baudouin d'Aumeries
Technical & hardware support : Manuel Goepfert
Assistance : Marc-Olivier Méhu




SOURCES & CREDITS :

   NOAA